createdAt,value
2022-07-29T00:03:44.582Z,20.10
2022-07-29T00:08:47.839Z,19.90
2022-07-29T00:13:51.110Z,19.80
2022-07-29T00:18:53.014Z,19.50
2022-07-29T00:23:56.248Z,19.50
2022-07-29T00:29:23.705Z,19.30
2022-07-29T00:34:20.201Z,19.20
2022-07-29T00:39:23.929Z,19.20
2022-07-29T00:44:26.416Z,19.20
2022-07-29T00:49:28.319Z,19.40
2022-07-29T00:54:31.661Z,19.70
2022-07-29T00:59:34.669Z,19.90
2022-07-29T01:04:37.279Z,20.20
2022-07-29T01:09:46.825Z,20.40
2022-07-29T01:14:50.259Z,20.50
2022-07-29T01:19:58.854Z,20.50
2022-07-29T01:25:34.776Z,20.60
2022-07-29T01:30:40.232Z,20.50
2022-07-29T01:35:46.020Z,20.40
2022-07-29T01:40:52.386Z,20.30
2022-07-29T01:45:59.996Z,20.30
2022-07-29T01:51:06.781Z,20.20
2022-07-29T01:56:11.150Z,20.10
2022-07-29T02:01:15.598Z,20.10
2022-07-29T02:06:19.949Z,19.90
2022-07-29T02:11:21.852Z,19.80
2022-07-29T02:16:27.512Z,19.70
2022-07-29T02:21:31.734Z,19.60
2022-07-29T02:26:34.481Z,19.60
2022-07-29T02:31:38.679Z,19.70
2022-07-29T02:36:42.357Z,19.60
2022-07-29T02:41:47.069Z,19.50
2022-07-29T02:46:56.683Z,19.50
2022-07-29T02:52:01.380Z,19.40
2022-07-29T02:57:35.479Z,19.40
2022-07-29T03:03:06.913Z,19.30
2022-07-29T03:08:11.251Z,19.10
2022-07-29T03:13:14.134Z,18.90
2022-07-29T03:18:25.989Z,18.80
2022-07-29T03:23:27.836Z,18.70
2022-07-29T03:28:37.584Z,18.60
2022-07-29T03:33:42.889Z,18.50
2022-07-29T03:38:47.767Z,18.30
2022-07-29T03:43:52.636Z,18.20
2022-07-29T03:49:00.822Z,18.10
2022-07-29T03:54:07.861Z,18.00
2022-07-29T03:59:16.200Z,17.90
2022-07-29T04:04:19.994Z,17.80
2022-07-29T04:09:22.031Z,17.70
2022-07-29T04:14:31.246Z,17.60
2022-07-29T04:20:00.044Z,17.70
2022-07-29T04:31:10.237Z,17.60
2022-07-29T04:36:28.845Z,17.50
2022-07-29T04:41:34.690Z,17.50
2022-07-29T04:46:39.083Z,17.50
2022-07-29T04:51:42.436Z,17.50
2022-07-29T04:56:52.012Z,17.50
2022-07-29T05:01:54.012Z,17.50
2022-07-29T05:06:58.673Z,17.50
2022-07-29T05:12:00.509Z,17.60
2022-07-29T05:17:02.894Z,17.80
2022-07-29T05:22:09.110Z,17.90
2022-07-29T05:27:13.457Z,18.00
2022-07-29T05:32:20.384Z,18.20
2022-07-29T05:37:23.643Z,18.30
2022-07-29T05:42:27.511Z,18.50
2022-07-29T05:47:29.386Z,18.70
2022-07-29T05:52:32.667Z,18.90
2022-07-29T05:57:34.527Z,19.00
2022-07-29T06:02:38.446Z,19.20
2022-07-29T08:00:38.528Z,23.40
2022-07-29T08:05:45.718Z,23.70
2022-07-29T08:10:50.957Z,23.90
2022-07-29T08:15:56.855Z,24.00
2022-07-29T08:20:59.031Z,24.40
2022-07-29T08:26:01.450Z,24.90
2022-07-29T08:31:04.779Z,25.00
2022-07-29T08:36:08.189Z,25.30
2022-07-29T08:41:13.393Z,25.30
2022-07-29T08:46:27.212Z,25.40
2022-07-29T08:51:32.885Z,25.50
2022-07-29T08:56:37.627Z,25.90
2022-07-29T09:01:45.091Z,26.20
2022-07-29T09:06:51.482Z,26.00
2022-07-29T09:12:07.107Z,25.70
2022-07-29T09:17:45.005Z,25.40
2022-07-29T09:22:53.696Z,25.50
2022-07-29T09:28:05.982Z,26.40
2022-07-29T09:33:14.309Z,27.00
2022-07-29T09:38:18.305Z,27.20
2022-07-29T09:49:07.163Z,27.70
2022-07-29T09:54:32.805Z,28.00
2022-07-29T09:59:50.217Z,28.30
2022-07-29T10:04:53.980Z,28.40
2022-07-29T10:10:01.844Z,28.70
2022-07-29T10:15:19.505Z,28.80
2022-07-29T10:20:26.667Z,28.70
2022-07-29T10:25:28.670Z,28.90
2022-07-29T10:30:38.412Z,28.90
2022-07-29T10:36:13.002Z,29.30
2022-07-29T10:41:44.811Z,29.20
2022-07-29T10:46:51.079Z,29.20
2022-07-29T10:52:05.993Z,29.50
2022-07-29T10:57:53.463Z,29.30
2022-07-29T11:02:51.813Z,29.60
2022-07-29T11:08:40.150Z,29.50
2022-07-29T11:26:13.455Z,30.40
2022-07-29T11:37:33.007Z,30.20
2022-07-29T11:42:51.878Z,30.40
2022-07-29T11:53:32.834Z,31.10
2022-07-29T12:04:07.045Z,31.10
2022-07-29T12:09:14.515Z,31.00
2022-07-29T12:14:28.519Z,29.90
2022-07-29T12:19:46.832Z,29.60
2022-07-29T12:25:11.532Z,30.20
2022-07-29T12:30:22.383Z,31.10
2022-07-29T12:35:27.034Z,31.70
2022-07-29T12:40:34.765Z,31.50
2022-07-29T12:45:47.542Z,30.60
2022-07-29T12:56:41.889Z,31.10
2022-07-29T13:01:44.152Z,31.60
2022-07-29T13:06:51.075Z,31.60
2022-07-29T13:11:59.928Z,30.70
2022-07-29T13:17:11.279Z,29.80
2022-07-29T13:22:18.071Z,29.40
2022-07-29T13:27:26.234Z,29.20
2022-07-29T13:32:30.187Z,28.70
2022-07-29T13:37:32.213Z,28.50
2022-07-29T13:42:35.601Z,28.20
2022-07-29T13:47:37.641Z,27.90
2022-07-29T13:52:44.224Z,27.70
2022-07-29T13:57:50.310Z,27.70
2022-07-29T14:02:54.745Z,27.70
2022-07-29T14:07:59.332Z,28.10
2022-07-29T14:13:24.472Z,28.60
2022-07-29T14:18:27.611Z,28.80
2022-07-29T14:23:31.987Z,28.50
2022-07-29T14:28:50.911Z,28.10
2022-07-29T14:33:52.912Z,27.80
2022-07-29T14:38:54.892Z,27.50
2022-07-29T14:43:59.868Z,27.40
2022-07-29T14:49:01.756Z,27.30
2022-07-29T14:54:07.263Z,27.00
2022-07-29T14:59:26.933Z,26.80
2022-07-29T15:04:32.087Z,26.50
2022-07-29T15:09:36.311Z,26.30
2022-07-29T15:15:04.069Z,25.70
2022-07-29T15:25:48.782Z,25.90
2022-07-29T15:30:52.097Z,25.90
2022-07-29T15:35:59.890Z,26.00
2022-07-29T15:41:05.470Z,26.10
2022-07-29T15:46:08.757Z,26.10
2022-07-29T15:51:15.327Z,26.20
2022-07-29T15:56:33.775Z,26.30
2022-07-29T16:02:29.101Z,26.30
2022-07-29T16:07:53.192Z,26.30
2022-07-29T16:12:55.082Z,26.10
2022-07-29T16:18:00.334Z,25.70
2022-07-29T17:13:58.876Z,24.40
2022-07-29T17:19:05.265Z,24.30
2022-07-29T17:24:07.754Z,24.20
2022-07-29T17:29:11.347Z,24.20
2022-07-29T17:34:13.510Z,24.10
2022-07-29T17:39:15.534Z,23.90
2022-07-29T17:44:18.761Z,23.70
2022-07-29T17:49:25.536Z,23.50
2022-07-29T17:54:27.774Z,23.30
2022-07-29T17:59:40.529Z,22.10
2022-07-29T18:04:50.656Z,21.10
2022-07-29T18:10:15.256Z,20.30
2022-07-29T18:16:26.267Z,19.80
2022-07-29T18:21:38.086Z,19.40
2022-07-29T18:27:02.847Z,19.20
2022-07-29T18:32:07.065Z,19.00
2022-07-29T18:43:04.379Z,18.70
2022-07-29T18:48:43.927Z,18.40
2022-07-29T18:53:46.223Z,18.20
2022-07-29T18:58:49.841Z,18.10
2022-07-29T19:04:02.514Z,18.10
2022-07-29T19:09:04.581Z,17.90
2022-07-29T19:14:09.924Z,17.70
2022-07-29T19:19:13.371Z,17.60
2022-07-29T19:24:15.873Z,17.60
2022-07-29T19:29:18.157Z,17.60
2022-07-29T19:34:21.534Z,17.40
2022-07-29T19:39:34.941Z,17.30
2022-07-29T19:44:37.578Z,17.30
2022-07-29T19:49:40.853Z,17.30
2022-07-29T19:54:42.755Z,17.20
2022-07-29T20:05:09.427Z,17.10
2022-07-29T20:10:11.418Z,17.10
2022-07-29T20:15:17.495Z,17.10
2022-07-29T20:20:20.879Z,17.00
2022-07-29T20:25:22.796Z,17.00
2022-07-29T20:30:24.856Z,17.00
2022-07-29T20:35:28.244Z,17.00
2022-07-29T20:40:30.166Z,16.90
2022-07-29T20:45:32.045Z,17.00
2022-07-29T20:50:35.416Z,16.90
2022-07-29T20:55:44.969Z,17.00
2022-07-29T21:01:02.037Z,17.10
2022-07-29T21:06:05.622Z,17.20
2022-07-29T21:11:07.479Z,17.20
2022-07-29T21:16:09.719Z,17.10
2022-07-29T21:27:04.744Z,17.10
2022-07-29T21:32:38.740Z,17.10
2022-07-29T21:37:40.656Z,17.20
2022-07-29T21:42:44.829Z,17.40
2022-07-29T21:47:47.456Z,17.30
2022-07-29T21:52:55.279Z,17.30
2022-07-29T21:57:58.747Z,17.10
2022-07-29T22:03:04.726Z,17.00
2022-07-29T22:08:14.113Z,17.00
2022-07-29T22:13:17.485Z,16.90
2022-07-29T22:18:21.534Z,16.90
2022-07-29T22:23:48.759Z,16.90
2022-07-29T22:29:07.142Z,16.80
2022-07-29T22:39:30.413Z,16.70
2022-07-29T22:50:12.233Z,16.60
2022-07-29T22:55:43.320Z,16.50
2022-07-29T23:00:51.351Z,16.50
2022-07-29T23:05:53.377Z,16.50
2022-07-29T23:10:55.468Z,16.30
2022-07-29T23:15:58.820Z,16.20
2022-07-29T23:21:04.354Z,16.20
2022-07-29T23:26:08.865Z,16.20
2022-07-29T23:31:15.508Z,16.20
2022-07-29T23:36:19.460Z,16.10
2022-07-29T23:41:21.640Z,16.20
2022-07-29T23:46:43.964Z,16.20
2022-07-29T23:51:47.818Z,16.30
2022-07-29T23:56:49.635Z,16.30
